Time;durP1;ratioP1;P1;durP2;ratioP2;P2;SDS_P1;SDS_P2;PMS_P1;PMS_P2;Temp;Humidity;BMP_temperature;BMP_pressure;BME280_temperature;BME280_humidity;BME280_pressure;Samples;Min_cycle;Max_cycle;Signal;HPM_P1;HPM_P2
2022/07/16 00:03:46;;;;;;;3.25;2.30;;;;;;;22.77;38.81;95915.09;5006913;28;20292;-84
2022/07/16 00:06:35;;;;;;;3.03;2.33;;;;;;;22.95;38.48;95917.44;5015272;28;20278;-85
2022/07/16 00:09:30;;;;;;;3.17;1.90;;;;;;;23.09;38.11;95913.41;5018412;28;20203;-85
2022/07/16 00:12:24;;;;;;;3.60;2.20;;;;;;;23.15;38.03;95917.66;5017199;28;20191;-85
2022/07/16 00:15:10;;;;;;;2.35;2.10;;;;;;;23.06;38.53;95913.91;4997324;28;20231;-85
2022/07/16 00:21:09;;;;;;;3.78;2.22;;;;;;;23.15;38.27;95915.03;4997541;28;20245;-85
2022/07/16 00:24:03;;;;;;;2.90;1.75;;;;;;;23.10;38.36;95917.59;5000171;28;20223;-85
2022/07/16 00:29:36;;;;;;;2.17;1.95;;;;;;;22.89;39.56;95910.56;4980695;28;20846;-85
2022/07/16 00:32:27;;;;;;;2.50;1.95;;;;;;;22.87;39.58;95910.81;4985755;28;20195;-85
2022/07/16 00:35:27;;;;;;;2.33;2.10;;;;;;;22.96;39.29;95903.28;4973400;28;20223;-85
2022/07/16 00:38:19;;;;;;;2.53;2.33;;;;;;;22.95;39.03;95901.69;5001425;28;20210;-85
2022/07/16 00:40:56;;;;;;;2.33;2.13;;;;;;;22.90;39.05;95904.28;5000922;28;20211;-83
2022/07/16 00:43:51;;;;;;;2.40;2.20;;;;;;;22.86;39.47;95903.97;5000216;28;20625;-85
2022/07/16 00:46:34;;;;;;;3.28;2.33;;;;;;;22.85;39.51;95902.38;5001419;28;20240;-85
2022/07/16 00:52:29;;;;;;;3.10;2.03;;;;;;;22.82;39.29;95909.94;4984984;28;20582;-85
2022/07/16 00:55:08;;;;;;;3.47;2.30;;;;;;;22.79;39.01;95913.06;5001545;28;20230;-85
2022/07/16 01:00:49;;;;;;;2.25;2.03;;;;;;;22.79;39.81;95908.59;4999597;28;20207;-85
2022/07/16 01:03:27;;;;;;;2.75;2.20;;;;;;;22.73;39.88;95904.28;4990475;28;20235;-85
2022/07/16 01:06:08;;;;;;;2.25;1.90;;;;;;;22.66;40.32;95906.31;5001257;28;20207;-85
2022/07/16 01:08:45;;;;;;;2.47;2.20;;;;;;;22.61;40.54;95912.31;5001654;28;20294;-85
2022/07/16 01:12:15;;;;;;;2.80;2.30;;;;;;;22.44;41.17;95913.38;5001038;28;20221;-84
2022/07/16 01:15:13;;;;;;;3.67;2.50;;;;;;;22.46;41.13;95913.94;4973911;28;20223;-85
2022/07/16 01:18:14;;;;;;;5.13;2.42;;;;;;;22.45;41.54;95915.78;5001248;28;20196;-85
2022/07/16 01:20:58;;;;;;;3.92;2.30;;;;;;;22.36;41.68;95909.34;5000282;28;20208;-84
2022/07/16 01:24:12;;;;;;;3.22;2.15;;;;;;;22.26;41.72;95917.09;4986581;28;20909;-85
2022/07/16 01:27:01;;;;;;;2.80;2.50;;;;;;;22.12;42.04;95921.88;5000515;28;20200;-85
2022/07/16 01:30:08;;;;;;;;;;;;;;;;;;;;;
2022/07/16 01:33:20;;;;;;;3.92;2.35;;;;;;;22.04;42.33;95920.44;4987574;28;20239;-85
2022/07/16 01:36:05;;;;;;;3.42;2.40;;;;;;;21.97;42.03;95919.78;4999637;28;20227;-85
2022/07/16 01:41:50;;;;;;;3.58;2.30;;;;;;;22.03;41.88;95920.69;4971215;28;20243;-85
2022/07/16 01:44:31;;;;;;;3.05;2.50;;;;;;;22.03;41.87;95921.47;4979282;28;20248;-85
2022/07/16 01:50:45;;;;;;;;;;;;;;;;;;;;;
2022/07/16 01:53:47;;;;;;;3.88;2.60;;;;;;;21.93;42.25;95923.16;4977105;28;20336;-85
2022/07/16 01:59:51;;;;;;;2.75;2.20;;;;;;;21.66;43.02;95923.75;4998135;28;20610;-84
2022/07/16 02:02:32;;;;;;;2.78;2.55;;;;;;;21.68;42.91;95926.94;4957724;28;20672;-85
2022/07/16 02:11:21;;;;;;;3.20;2.33;;;;;;;21.77;42.97;95924.72;4995153;28;20784;-85
2022/07/16 02:14:05;;;;;;;3.22;2.50;;;;;;;21.69;43.38;95922.50;4986791;28;20223;-85
2022/07/16 02:19:53;;;;;;;2.78;2.53;;;;;;;21.60;43.69;95935.19;4972888;28;20231;-85
2022/07/16 02:22:39;;;;;;;2.30;2.10;;;;;;;21.47;44.03;95932.88;4974227;28;20202;-85
2022/07/16 02:25:32;;;;;;;5.45;2.45;;;;;;;21.44;43.96;95933.34;4998348;28;20224;-84
2022/07/16 02:31:22;;;;;;;;;;;;;;;;;;;;;
2022/07/16 02:34:11;;;;;;;2.78;2.33;;;;;;;21.26;44.11;95934.34;4997796;28;20234;-85
2022/07/16 02:37:05;;;;;;;;;;;;;;;;;;;;;
2022/07/16 02:39:45;;;;;;;2.60;2.40;;;;;;;21.17;44.82;95925.22;4979379;28;20192;-84
2022/07/16 02:42:41;;;;;;;2.50;2.30;;;;;;;21.19;45.15;95933.66;4978945;28;20192;-85
2022/07/16 02:45:43;;;;;;;;;;;;;;;;;;;;;
2022/07/16 02:48:43;;;;;;;3.67;2.25;;;;;;;21.25;45.23;95924.09;4998434;28;20582;-85
2022/07/16 02:51:32;;;;;;;4.45;2.45;;;;;;;21.29;44.72;95936.50;4997451;28;20205;-85
2022/07/16 02:54:51;;;;;;;;;;;;;;;;;;;;;
2022/07/16 02:57:44;;;;;;;3.58;2.40;;;;;;;21.06;44.83;95941.00;4996959;28;20191;-85
2022/07/16 03:00:13;;;;;;;2.63;2.42;;;;;;;21.03;44.80;95942.25;4917165;29;20222;-85
2022/07/16 03:03:24;;;;;;;3.80;2.70;;;;;;;21.12;44.67;95938.25;4945863;28;20239;-85
2022/07/16 03:06:19;;;;;;;3.30;2.63;;;;;;;21.17;44.07;95945.38;4996783;28;20286;-85
2022/07/16 03:14:42;;;;;;;4.70;2.58;;;;;;;21.08;44.71;95938.94;4982553;28;20885;-84
2022/07/16 03:20:22;;;;;;;3.25;2.60;;;;;;;21.01;44.57;95950.34;4976593;28;20224;-84
2022/07/16 03:23:10;;;;;;;7.10;2.47;;;;;;;21.02;45.04;95951.94;4992379;28;20231;-85
2022/07/16 03:26:15;;;;;;;3.05;2.60;;;;;;;21.10;44.52;95957.84;4992320;28;20247;-85
2022/07/16 03:31:59;;;;;;;3.03;2.55;;;;;;;20.95;45.36;95960.97;4931703;29;20228;-85
2022/07/16 03:34:28;;;;;;;2.78;2.58;;;;;;;20.92;45.03;95961.41;4904419;29;20664;-84
2022/07/16 03:40:40;;;;;;;2.65;2.45;;;;;;;20.80;44.89;95958.81;4897225;29;20209;-84
2022/07/16 03:43:06;;;;;;;6.63;2.90;;;;;;;20.83;48.45;95957.56;4991485;28;20231;-83
2022/07/16 03:45:33;;;;;;;7.95;3.22;;;;;;;21.17;50.27;95961.88;4993483;28;20227;-84
2022/07/16 03:48:00;;;;;;;9.05;3.10;;;;;;;21.54;51.10;95959.75;4993214;28;20211;-84
2022/07/16 03:50:26;;;;;;;7.82;2.47;;;;;;;21.80;47.42;95960.16;4991539;28;20212;-83
2022/07/16 03:52:53;;;;;;;3.35;2.65;;;;;;;21.88;44.08;95959.75;4993258;28;20235;-83
2022/07/16 03:55:19;;;;;;;3.97;2.90;;;;;;;21.94;44.99;95954.34;4994655;28;20226;-84
2022/07/16 03:57:47;;;;;;;2.75;2.33;;;;;;;22.04;45.59;95954.53;4998168;28;20199;-83
2022/07/16 04:00:15;;;;;;;3.30;2.55;;;;;;;22.15;45.20;95954.69;4998213;28;20195;-83
2022/07/16 04:02:41;;;;;;;3.85;2.90;;;;;;;22.20;45.35;95968.69;4998168;28;20254;-83
2022/07/16 04:05:09;;;;;;;4.15;2.90;;;;;;;22.42;44.99;95967.94;4998974;28;20230;-83
2022/07/16 04:07:36;;;;;;;3.70;2.90;;;;;;;22.47;42.73;95975.91;4998424;28;20207;-83
2022/07/16 04:10:03;;;;;;;2.85;2.60;;;;;;;22.52;44.16;95979.34;4998272;28;20211;-83
2022/07/16 04:12:30;;;;;;;5.45;2.83;;;;;;;22.67;44.07;95984.03;4996852;28;20234;-83
2022/07/16 04:15:00;;;;;;;4.50;2.90;;;;;;;22.61;42.48;95974.50;4998195;28;20241;-83
2022/07/16 04:17:27;;;;;;;3.90;2.72;;;;;;;22.65;44.40;95978.25;4997587;28;20196;-83
2022/07/16 04:19:53;;;;;;;5.78;2.67;;;;;;;22.82;44.20;95976.38;4997758;28;20203;-83
2022/07/16 04:22:20;;;;;;;3.35;2.38;;;;;;;22.92;45.91;95976.50;4996278;28;20210;-83
2022/07/16 04:24:46;;;;;;;3.15;2.40;;;;;;;23.00;45.60;95977.91;4993634;28;20225;-82
2022/07/16 04:27:13;;;;;;;3.72;2.63;;;;;;;23.09;44.21;95974.59;4997818;28;20199;-82
2022/07/16 04:29:40;;;;;;;5.15;2.60;;;;;;;22.84;41.68;95978.78;4997085;28;20687;-85
2022/07/16 04:32:09;;;;;;;3.67;2.90;;;;;;;22.44;41.61;95982.41;4990365;28;20288;-85
2022/07/16 04:34:41;;;;;;;3.28;2.63;;;;;;;22.19;42.34;95987.28;4990653;28;20227;-85
2022/07/16 04:37:25;;;;;;;3.15;2.50;;;;;;;21.95;42.92;95981.34;4995799;28;20282;-84
2022/07/16 04:43:49;;;;;;;5.57;3.03;;;;;;;21.62;43.68;95993.41;4872832;29;20246;-84
2022/07/16 04:46:46;;;;;;;3.20;2.85;;;;;;;21.60;43.84;95995.47;4898741;29;20202;-84
2022/07/16 04:52:36;;;;;;;3.15;2.80;;;;;;;21.54;44.28;95993.81;4887564;29;20226;-84
2022/07/16 05:07:47;;;;;;;3.88;2.80;;;;;;;21.65;44.66;96008.66;4975950;28;20204;-85
2022/07/16 05:11:19;;;;;;;5.13;3.10;;;;;;;21.61;44.77;96009.38;4963420;28;20216;-84
2022/07/16 05:14:29;;;;;;;5.50;3.08;;;;;;;21.69;44.95;96011.63;4988404;28;20314;-84
2022/07/16 05:29:53;;;;;;;3.55;2.50;;;;;;;21.84;42.45;96008.47;4954070;29;20211;-84
2022/07/16 05:33:20;;;;;;;5.18;2.60;;;;;;;21.91;42.47;96009.91;5003006;28;20194;-85
2022/07/16 05:36:12;;;;;;;3.60;2.60;;;;;;;21.98;42.58;96004.50;4994321;28;20321;-84
2022/07/16 05:39:19;;;;;;;4.70;2.60;;;;;;;22.04;42.28;96008.81;4995660;28;20686;-85
2022/07/16 05:42:24;;;;;;;4.05;2.05;;;;;;;21.96;43.12;96006.56;4995796;28;20226;-84
2022/07/16 05:48:19;;;;;;;6.05;2.88;;;;;;;22.17;41.99;96018.19;4931388;29;20612;-84
2022/07/16 05:51:18;;;;;;;3.55;2.40;;;;;;;22.23;41.72;96023.28;5002863;28;20210;-85
2022/07/16 06:04:28;;;;;;;3.45;2.33;;;;;;;22.34;40.80;96025.03;4982955;28;20624;-84
2022/07/16 06:07:10;;;;;;;;;;;;;;;;;;;;;
2022/07/16 06:13:17;;;;;;;3.92;2.20;;;;;;;22.42;41.37;96028.28;4977920;28;20261;-84
2022/07/16 06:16:22;;;;;;;2.55;2.35;;;;;;;22.55;40.54;96026.13;5002466;28;20295;-85
2022/07/16 06:19:06;;;;;;;3.25;2.40;;;;;;;22.67;40.39;96023.41;4994524;28;20196;-84
2022/07/16 06:21:52;;;;;;;2.80;2.50;;;;;;;22.73;39.47;96031.09;4915256;29;20696;-84
2022/07/16 06:24:57;;;;;;;2.38;2.15;;;;;;;22.78;39.90;96022.53;4990483;28;20227;-84
2022/07/16 06:28:28;;;;;;;3.17;2.60;;;;;;;22.80;41.32;96032.81;4914656;29;20643;-85
2022/07/16 06:31:12;;;;;;;4.63;2.47;;;;;;;22.73;41.55;96030.31;4859089;29;20223;-85
2022/07/16 06:37:06;;;;;;;3.13;2.35;;;;;;;22.95;40.39;96040.88;4915662;29;20206;-84
2022/07/16 06:43:29;;;;;;;4.40;2.50;;;;;;;23.05;39.57;96036.56;4989815;28;20710;-85
2022/07/16 06:46:41;;;;;;;3.28;2.50;;;;;;;23.14;38.92;96033.50;4994525;28;20219;-84
2022/07/16 06:59:01;;;;;;;3.50;2.22;;;;;;;23.21;38.04;96034.91;4993167;28;20215;-84
2022/07/16 07:02:13;;;;;;;4.68;2.40;;;;;;;23.28;37.99;96038.16;4994214;28;20208;-84
2022/07/16 07:08:05;;;;;;;2.67;2.20;;;;;;;23.44;37.56;96041.75;4982705;28;20699;-84
2022/07/16 07:16:43;;;;;;;3.38;2.30;;;;;;;23.32;38.19;96033.19;4980672;28;20254;-85
2022/07/16 07:19:35;;;;;;;3.50;2.20;;;;;;;23.34;38.56;96034.53;4992863;28;20679;-85
2022/07/16 07:22:28;;;;;;;5.00;2.20;;;;;;;23.53;37.61;96039.50;4994190;28;20207;-84
2022/07/16 07:25:03;;;;;;;4.20;2.08;;;;;;;23.47;37.38;96037.84;4965573;28;20703;-84
2022/07/16 07:31:31;;;;;;;2.40;2.20;;;;;;;23.75;37.54;96038.44;4985823;28;20659;-84
2022/07/16 07:40:26;;;;;;;4.03;2.40;;;;;;;24.13;36.98;96041.94;4975823;28;20201;-84
2022/07/16 07:45:47;;;;;;;6.32;5.70;;;;;;;24.31;36.82;96035.53;4993638;28;20233;-84
2022/07/16 07:48:36;;;;;;;13.38;11.98;;;;;;;24.40;36.28;96031.38;4993547;28;20290;-84
2022/07/16 07:51:43;;;;;;;12.88;10.48;;;;;;;24.56;36.22;96027.81;4993698;28;20199;-84
2022/07/16 07:54:23;;;;;;;4.03;3.13;;;;;;;24.63;35.81;96031.00;4982059;28;20790;-84
2022/07/16 08:00:19;;;;;;;3.78;2.63;;;;;;;24.61;35.80;96033.13;4994479;28;20191;-84
2022/07/16 08:02:56;;;;;;;4.18;2.78;;;;;;;24.62;35.45;96021.53;4982675;28;20231;-85
2022/07/16 08:11:57;;;;;;;3.17;2.90;;;;;;;25.05;35.06;96041.53;4973577;28;20303;-84
2022/07/16 08:14:31;;;;;;;3.97;2.88;;;;;;;25.10;34.80;96032.88;4991967;28;20254;-84
2022/07/16 08:17:06;;;;;;;6.07;4.53;;;;;;;25.19;34.36;96033.19;4993720;28;20223;-85
2022/07/16 08:19:33;;;;;;;5.55;5.00;;;;;;;25.33;34.87;96029.03;4994243;28;20203;-84
2022/07/16 08:22:00;;;;;;;5.25;3.15;;;;;;;25.42;34.47;96038.00;4992741;28;20215;-84
2022/07/16 08:27:25;;;;;;;3.47;2.40;;;;;;;25.43;35.02;96035.09;5013402;28;20221;-85
2022/07/16 08:30:09;;;;;;;4.10;3.35;;;;;;;25.66;33.60;96043.66;5012399;28;20207;-84
2022/07/16 08:32:36;;;;;;;4.95;2.60;;;;;;;25.72;34.33;96047.88;5007829;28;20627;-84
2022/07/16 08:35:18;;;;;;;4.22;2.97;;;;;;;25.85;33.59;96046.59;4994917;28;20223;-87
2022/07/16 08:38:06;;;;;;;3.53;2.78;;;;;;;26.00;33.21;96043.97;4996908;28;20207;-84
2022/07/16 08:40:36;;;;;;;3.83;2.40;;;;;;;25.90;32.90;96044.75;4998350;28;20200;-85
2022/07/16 08:43:11;;;;;;;5.00;2.83;;;;;;;26.03;33.08;96048.72;5001505;28;20235;-85
2022/07/16 08:45:52;;;;;;;5.00;2.88;;;;;;;25.95;32.42;96043.97;5002094;28;20230;-85
2022/07/16 08:48:30;;;;;;;5.43;2.70;;;;;;;26.07;32.55;96039.22;5001807;28;20218;-85
2022/07/16 08:51:22;;;;;;;3.83;2.92;;;;;;;26.21;33.43;96048.19;4999225;28;20255;-85
2022/07/16 08:54:09;;;;;;;5.78;3.08;;;;;;;26.27;32.25;96043.72;4998262;28;20305;-84
2022/07/16 08:56:45;;;;;;;2.75;2.55;;;;;;;26.38;32.86;96048.75;5001086;28;20223;-85
2022/07/16 08:59:21;;;;;;;3.20;2.55;;;;;;;26.60;32.25;96048.47;5001860;28;20195;-84
2022/07/16 09:01:55;;;;;;;3.80;2.65;;;;;;;26.60;31.64;96051.13;5001107;28;20261;-84
2022/07/16 09:04:32;;;;;;;3.15;2.80;;;;;;;26.77;31.11;96054.25;4986876;28;20380;-85
2022/07/16 09:07:02;;;;;;;6.00;2.70;;;;;;;26.71;31.10;96042.13;4983652;28;20207;-85
2022/07/16 09:09:34;;;;;;;4.57;2.55;;;;;;;26.76;30.77;96036.81;4983058;28;20216;-85
2022/07/16 09:12:04;;;;;;;2.90;2.60;;;;;;;26.68;31.02;96055.09;4983057;28;20204;-84
2022/07/16 09:14:40;;;;;;;3.13;2.60;;;;;;;26.89;30.67;96040.78;5000045;28;20722;-85
2022/07/16 09:17:18;;;;;;;5.38;4.05;;;;;;;26.91;30.23;96041.31;5002326;28;21062;-84
2022/07/16 09:19:45;;;;;;;3.33;3.00;;;;;;;26.77;30.48;96035.75;5001784;28;20230;-84
2022/07/16 09:22:28;;;;;;;3.80;2.80;;;;;;;27.06;31.18;96046.56;4990101;28;20256;-84
2022/07/16 09:24:55;;;;;;;2.97;2.65;;;;;;;27.16;30.43;96033.31;4999239;28;20216;-85
2022/07/16 09:27:30;;;;;;;4.18;2.75;;;;;;;27.32;30.27;96034.06;5000410;28;20200;-84
2022/07/16 09:30:07;;;;;;;4.30;2.90;;;;;;;27.37;30.45;96038.50;4999900;28;20222;-84
2022/07/16 09:32:36;;;;;;;3.70;2.85;;;;;;;27.52;29.36;96041.06;4999894;28;20226;-84
2022/07/16 09:35:10;;;;;;;3.08;2.55;;;;;;;27.65;30.22;96040.53;4999901;28;20246;-85
2022/07/16 09:37:59;;;;;;;2.95;2.75;;;;;;;27.68;29.93;96036.56;5000471;28;20261;-85
2022/07/16 09:40:54;;;;;;;3.67;2.92;;;;;;;27.87;30.07;96034.06;4999690;28;20263;-84
2022/07/16 09:43:23;;;;;;;3.95;3.03;;;;;;;27.99;29.44;96032.63;4988530;28;20242;-84
2022/07/16 09:45:56;;;;;;;4.03;3.00;;;;;;;28.02;30.14;96031.28;4999997;28;20227;-85
2022/07/16 09:48:27;;;;;;;12.85;10.45;;;;;;;28.06;29.84;96027.81;4999956;28;20203;-84
2022/07/16 09:50:57;;;;;;;5.28;4.30;;;;;;;28.02;29.79;96032.09;4999222;28;20203;-84
2022/07/16 09:56:20;;;;;;;6.18;3.00;;;;;;;28.04;29.02;96026.50;4938920;29;20217;-84
2022/07/16 09:58:49;;;;;;;3.88;3.10;;;;;;;28.24;28.75;96022.94;4939818;29;20201;-84
2022/07/16 10:01:27;;;;;;;3.33;2.65;;;;;;;28.31;28.29;96029.50;4977776;28;20234;-85
2022/07/16 10:04:06;;;;;;;4.78;2.83;;;;;;;28.49;28.16;96028.00;4998536;28;20587;-84
2022/07/16 10:06:38;;;;;;;3.05;2.75;;;;;;;28.70;28.36;96031.25;4999024;28;20282;-85
2022/07/16 10:09:16;;;;;;;2.85;2.65;;;;;;;28.70;27.99;96018.81;5000184;28;20200;-84
2022/07/16 10:11:43;;;;;;;3.45;2.53;;;;;;;28.75;27.60;96017.97;4999972;28;20196;-84
2022/07/16 10:14:11;;;;;;;2.95;2.70;;;;;;;28.75;26.78;96013.47;4998348;28;20683;-85
2022/07/16 10:16:49;;;;;;;2.83;2.53;;;;;;;28.76;26.70;96022.19;4999501;28;20254;-84
2022/07/16 10:19:36;;;;;;;3.20;2.90;;;;;;;28.73;27.07;96020.91;4999962;28;20203;-84
2022/07/16 10:22:22;;;;;;;2.80;2.47;;;;;;;28.78;26.05;96018.19;4998578;28;20613;-85
2022/07/16 10:24:56;;;;;;;4.13;3.08;;;;;;;29.00;26.83;96023.03;4974152;28;20254;-84
2022/07/16 10:27:34;;;;;;;2.88;2.40;;;;;;;29.01;26.96;96014.00;4999352;28;20246;-85
2022/07/16 10:30:15;;;;;;;3.15;2.80;;;;;;;28.85;26.99;96010.75;4999562;28;20223;-84
2022/07/16 10:33:17;;;;;;;5.10;4.55;;;;;;;28.91;26.92;96024.72;4998810;28;20306;-84
2022/07/16 10:35:50;;;;;;;4.60;4.20;;;;;;;28.93;26.68;96021.78;5000126;28;20630;-84
2022/07/16 10:38:20;;;;;;;3.90;3.05;;;;;;;29.08;26.41;96016.31;5000172;28;20195;-85
2022/07/16 10:40:48;;;;;;;3.25;2.50;;;;;;;29.03;25.94;96022.47;5000194;28;20583;-84
2022/07/16 10:43:17;;;;;;;3.10;2.55;;;;;;;29.00;26.38;96024.91;4998979;28;20254;-84
2022/07/16 10:45:58;;;;;;;2.92;2.67;;;;;;;28.99;25.66;96010.06;4998516;28;20932;-84
2022/07/16 10:48:28;;;;;;;5.70;2.63;;;;;;;29.10;25.82;96016.81;4995626;28;20211;-84
2022/07/16 10:51:18;;;;;;;4.75;2.88;;;;;;;29.10;25.26;96016.81;4994692;28;20708;-85
2022/07/16 10:54:23;;;;;;;3.97;2.63;;;;;;;29.12;25.24;96015.47;4993126;28;20227;-85
2022/07/16 10:56:54;;;;;;;5.07;2.88;;;;;;;29.22;25.24;96006.59;4994025;28;20227;-85
2022/07/16 10:59:22;;;;;;;3.00;2.80;;;;;;;29.17;25.56;96015.41;4995047;28;20290;-84
2022/07/16 11:01:51;;;;;;;3.67;2.80;;;;;;;29.28;25.93;96016.06;4994722;28;20211;-84
2022/07/16 11:04:27;;;;;;;2.90;2.67;;;;;;;29.34;25.38;96003.53;4993174;28;20232;-84
2022/07/16 11:06:56;;;;;;;3.80;2.47;;;;;;;29.37;25.38;96002.97;4995076;28;20203;-84
2022/07/16 11:09:30;;;;;;;3.30;2.70;;;;;;;29.51;25.21;96004.66;4994918;28;20215;-84
2022/07/16 11:12:07;;;;;;;2.85;2.65;;;;;;;29.63;25.31;96006.09;4994183;28;20235;-84
2022/07/16 11:14:34;;;;;;;3.13;2.60;;;;;;;29.76;24.32;96008.81;4993619;28;20281;-84
2022/07/16 11:17:00;;;;;;;5.70;4.43;;;;;;;29.99;24.70;96007.19;4994033;28;20227;-84
2022/07/16 11:19:27;;;;;;;3.70;3.30;;;;;;;29.82;24.03;96007.69;4995348;28;20271;-84
2022/07/16 11:21:57;;;;;;;4.20;2.85;;;;;;;29.62;24.88;96000.00;4996648;28;20843;-85
2022/07/16 11:24:25;;;;;;;6.40;2.70;;;;;;;29.71;24.92;96002.78;4996341;28;20300;-84
2022/07/16 11:26:52;;;;;;;4.28;2.65;;;;;;;29.80;24.99;96015.13;4994150;28;20199;-85
2022/07/16 11:29:22;;;;;;;3.60;2.70;;;;;;;30.03;24.92;96010.81;4995029;28;20211;-84
2022/07/16 11:31:49;;;;;;;4.05;2.55;;;;;;;29.88;24.86;96011.81;4993873;28;20206;-84
2022/07/16 11:34:18;;;;;;;2.88;2.40;;;;;;;29.92;24.79;96017.34;4993649;28;20500;-84
2022/07/16 11:36:47;;;;;;;6.10;2.80;;;;;;;29.98;24.06;96005.59;4993945;28;20226;-85
2022/07/16 11:39:17;;;;;;;3.50;2.40;;;;;;;30.04;24.70;96006.28;4994244;28;20218;-84
2022/07/16 11:41:46;;;;;;;2.70;2.50;;;;;;;30.16;24.88;96012.75;4992961;28;20195;-85
2022/07/16 11:44:15;;;;;;;3.60;2.70;;;;;;;30.07;24.29;96003.06;4995077;28;20249;-84
2022/07/16 11:46:44;;;;;;;5.10;2.40;;;;;;;29.90;25.11;96007.00;4997988;28;20567;-85
2022/07/16 11:49:10;;;;;;;5.63;3.50;;;;;;;29.63;24.47;96000.78;4996974;28;20234;-85
2022/07/16 11:51:39;;;;;;;3.92;3.30;;;;;;;29.48;24.92;95988.50;4993249;28;20246;-84
2022/07/16 11:54:06;;;;;;;4.07;2.50;;;;;;;29.43;25.32;95997.34;4990966;28;20314;-84
2022/07/16 11:56:37;;;;;;;2.72;2.53;;;;;;;29.50;25.64;95996.97;4993585;28;20315;-84
2022/07/16 11:59:17;;;;;;;2.78;2.58;;;;;;;29.51;24.42;95994.03;4995206;28;20253;-84
2022/07/16 12:01:47;;;;;;;4.53;2.60;;;;;;;29.66;25.08;96000.97;4994154;28;20207;-84
2022/07/16 12:04:14;;;;;;;3.78;2.80;;;;;;;29.87;24.68;96010.22;4992749;28;20227;-84
2022/07/16 12:06:47;;;;;;;5.38;2.42;;;;;;;30.06;24.62;96012.91;4993786;28;20203;-84
2022/07/16 12:09:13;;;;;;;3.05;2.78;;;;;;;30.11;25.15;96012.81;4994166;28;20273;-85
2022/07/16 12:11:42;;;;;;;3.38;2.90;;;;;;;30.31;24.45;96005.59;4992360;28;20203;-84
2022/07/16 12:14:09;;;;;;;3.13;2.70;;;;;;;30.22;24.28;96002.81;4983408;28;20624;-84
2022/07/16 12:16:35;;;;;;;3.72;2.40;;;;;;;30.15;24.73;95997.91;4995050;28;20282;-85
2022/07/16 12:19:04;;;;;;;3.70;2.40;;;;;;;30.29;25.12;96015.72;4996444;28;20210;-85
2022/07/16 12:21:32;;;;;;;2.92;2.63;;;;;;;30.22;24.67;96016.09;4995598;28;20213;-85
2022/07/16 12:23:59;;;;;;;2.90;2.70;;;;;;;30.32;24.68;96009.84;4994679;28;20238;-84
2022/07/16 12:26:34;;;;;;;2.40;2.20;;;;;;;30.28;23.87;96001.66;4995979;28;20207;-85
2022/07/16 12:29:04;;;;;;;2.75;2.47;;;;;;;30.34;24.17;96011.13;4995444;28;20225;-84
2022/07/16 12:31:32;;;;;;;3.00;2.63;;;;;;;30.29;24.31;96002.44;4995092;28;20641;-84
2022/07/16 12:33:59;;;;;;;3.22;2.50;;;;;;;30.29;24.90;95992.59;4994326;28;20243;-84
2022/07/16 12:36:30;;;;;;;3.03;2.72;;;;;;;30.40;24.13;96002.00;4995635;28;20203;-84
2022/07/16 12:39:03;;;;;;;4.05;2.60;;;;;;;30.37;24.35;95994.59;4995358;28;20211;-84
2022/07/16 12:41:32;;;;;;;3.42;2.78;;;;;;;30.31;24.12;96005.59;4995483;28;20940;-84
2022/07/16 12:44:01;;;;;;;2.78;2.58;;;;;;;30.28;24.03;96003.53;4995114;28;20235;-84
2022/07/16 12:46:31;;;;;;;4.75;2.88;;;;;;;30.21;24.28;96002.03;4996174;28;20208;-84
2022/07/16 12:49:00;;;;;;;3.17;2.33;;;;;;;30.01;24.06;96013.00;4997307;28;20200;-84
2022/07/16 12:51:28;;;;;;;3.55;2.60;;;;;;;30.07;23.85;96003.84;4996259;28;20687;-85
2022/07/16 12:54:00;;;;;;;3.22;2.22;;;;;;;30.16;24.50;96002.13;4994430;28;20234;-85
2022/07/16 12:59:12;;;;;;;5.95;2.67;;;;;;;30.27;24.36;96002.72;4995764;28;20210;-84
2022/07/16 13:01:40;;;;;;;3.10;2.47;;;;;;;30.36;23.66;96003.66;4995300;28;20199;-85
2022/07/16 13:04:07;;;;;;;4.63;2.42;;;;;;;30.40;23.96;96002.00;4994650;28;20872;-85
2022/07/16 13:06:35;;;;;;;3.17;2.28;;;;;;;30.48;23.44;95995.22;4995136;28;20203;-84
2022/07/16 13:09:01;;;;;;;3.10;2.50;;;;;;;30.56;23.91;95990.03;4994392;28;20199;-84
2022/07/16 13:11:32;;;;;;;4.82;2.47;;;;;;;30.56;23.67;95992.69;4993657;28;20248;-84
2022/07/16 13:13:59;;;;;;;2.42;2.22;;;;;;;30.66;23.73;95990.94;4993392;28;20825;-84
2022/07/16 13:16:27;;;;;;;2.25;2.05;;;;;;;30.70;24.20;95990.06;4994107;28;20392;-84
2022/07/16 13:18:56;;;;;;;3.72;2.38;;;;;;;30.71;23.47;95988.19;4994074;28;20203;-84
2022/07/16 13:21:23;;;;;;;2.47;2.28;;;;;;;30.80;23.73;95995.16;4992978;28;20297;-84
2022/07/16 13:23:53;;;;;;;4.55;2.45;;;;;;;30.72;23.98;95993.22;4994098;28;20238;-84
2022/07/16 13:26:19;;;;;;;3.25;2.38;;;;;;;30.49;23.58;95989.59;4994691;28;20204;-84
2022/07/16 13:28:48;;;;;;;4.90;2.40;;;;;;;30.56;24.38;95995.38;4994968;28;20203;-84
2022/07/16 13:31:15;;;;;;;3.67;2.55;;;;;;;30.59;23.67;95993.19;4994321;28;20692;-84
2022/07/16 13:33:41;;;;;;;2.70;2.47;;;;;;;30.64;23.66;95991.22;4994885;28;20243;-85
2022/07/16 13:36:15;;;;;;;4.07;2.40;;;;;;;30.65;23.76;95990.13;4996254;28;20246;-85
2022/07/16 13:38:43;;;;;;;3.45;2.20;;;;;;;30.58;23.66;96003.06;4996232;28;20223;-85
2022/07/16 13:41:11;;;;;;;2.47;2.28;;;;;;;30.50;24.16;95999.16;4996645;28;20216;-85
2022/07/16 13:43:39;;;;;;;2.58;2.20;;;;;;;30.54;23.90;95986.06;4996247;28;20243;-84
2022/07/16 13:46:08;;;;;;;3.88;2.20;;;;;;;30.55;24.24;95985.81;4996430;28;20224;-84
2022/07/16 13:48:34;;;;;;;3.28;2.40;;;;;;;30.48;24.84;95989.88;4998051;28;20214;-85
2022/07/16 13:51:01;;;;;;;5.28;2.30;;;;;;;30.54;24.50;95989.53;4997851;28;20212;-84
2022/07/16 13:53:32;;;;;;;2.95;2.10;;;;;;;30.58;24.24;95986.31;4994699;28;20772;-84
2022/07/16 13:55:59;;;;;;;7.15;2.55;;;;;;;30.69;23.84;95995.66;4995904;28;20230;-84
2022/07/16 13:58:26;;;;;;;2.58;2.38;;;;;;;30.67;23.46;95993.28;4995243;28;20594;-84
2022/07/16 14:00:54;;;;;;;2.60;1.98;;;;;;;30.60;23.39;95997.44;4995320;28;20199;-85
2022/07/16 14:03:25;;;;;;;4.15;2.17;;;;;;;30.54;24.18;96002.81;4994554;28;20234;-84
2022/07/16 14:05:53;;;;;;;2.67;2.20;;;;;;;30.59;23.62;95996.66;4995465;28;20260;-85
2022/07/16 14:08:20;;;;;;;6.35;2.20;;;;;;;30.55;24.13;96001.75;4996055;28;20302;-85
2022/07/16 14:10:49;;;;;;;2.30;2.10;;;;;;;30.48;24.21;95996.00;4995130;28;20259;-85
2022/07/16 14:13:16;;;;;;;2.10;2.00;;;;;;;30.56;24.40;96006.00;4993889;28;20319;-84
2022/07/16 14:15:44;;;;;;;2.67;2.15;;;;;;;30.49;24.45;96004.75;4994540;28;20215;-84
2022/07/16 14:18:13;;;;;;;3.10;2.05;;;;;;;30.35;24.08;95998.63;4994750;28;20270;-84
2022/07/16 14:20:42;;;;;;;3.72;2.00;;;;;;;30.39;24.82;95997.78;4994911;28;20241;-85
2022/07/16 14:23:10;;;;;;;2.58;2.00;;;;;;;30.53;24.72;96001.22;4994637;28;20246;-83
2022/07/16 14:25:45;;;;;;;1.85;1.75;;;;;;;30.66;24.85;96001.56;5012372;23;20242;-83
2022/07/16 14:28:15;;;;;;;3.20;2.25;;;;;;;30.65;24.72;96002.63;5000863;28;20202;-83
2022/07/16 14:30:50;;;;;;;2.35;1.90;;;;;;;30.48;24.11;96008.50;5014124;28;20214;-83
2022/07/16 14:33:16;;;;;;;3.83;2.03;;;;;;;30.54;24.48;96010.00;5023402;28;20569;-84
2022/07/16 14:35:47;;;;;;;2.80;2.08;;;;;;;30.45;24.25;96017.06;5022244;28;20211;-85
2022/07/16 14:38:16;;;;;;;3.40;1.70;;;;;;;30.43;24.41;96004.06;5018903;28;20268;-84
2022/07/16 14:41:13;;;;;;;;;;;;;;;;;;;;;
2022/07/16 14:43:47;;;;;;;2.20;2.00;;;;;;;30.23;23.99;96013.16;5026161;28;20230;-84
2022/07/16 14:56:23;;;;;;;4.47;2.28;;;;;;;30.18;24.46;96021.22;4892137;29;20725;-85
2022/07/16 14:59:07;;;;;;;2.95;1.88;;;;;;;30.01;24.21;96028.16;4937960;28;20692;-85
2022/07/16 15:02:29;;;;;;;3.78;2.00;;;;;;;30.02;24.62;96011.91;4949880;28;20320;-84
2022/07/16 15:05:02;;;;;;;2.83;1.83;;;;;;;29.96;24.54;96022.88;4914287;29;20234;-84
2022/07/16 15:10:33;;;;;;;1.73;1.60;;;;;;;29.98;24.21;96016.22;5009192;28;20210;-85
2022/07/16 15:12:59;;;;;;;2.28;1.85;;;;;;;30.01;24.55;96013.00;5006544;28;20622;-84
2022/07/16 15:15:27;;;;;;;5.25;2.38;;;;;;;30.04;24.12;96022.22;5010991;28;20234;-84
2022/07/16 15:17:53;;;;;;;4.05;1.92;;;;;;;29.97;23.83;96025.25;5012695;28;20219;-84
2022/07/16 15:20:20;;;;;;;2.10;1.88;;;;;;;29.90;23.63;96014.19;5011424;28;20202;-85
2022/07/16 15:22:47;;;;;;;2.72;1.90;;;;;;;29.85;23.69;96025.66;5014339;28;20230;-84
2022/07/16 15:25:14;;;;;;;25.67;23.25;;;;;;;29.87;23.96;96020.06;5014986;28;20252;-84
2022/07/16 15:27:41;;;;;;;5.57;5.00;;;;;;;29.72;24.13;96007.81;5014355;28;20639;-84